sensor_id;sensor_type;location;lat;lon;timestamp;pressure;altitude;pressure_sealevel;temperature;humidity
967;BME280;56108;48.730;9.304;2023-02-12T00:00:15;99540.28;;;3.91;100.00
967;BME280;56108;48.730;9.304;2023-02-12T00:02:23;99538.47;;;3.98;100.00
967;BME280;56108;48.730;9.304;2023-02-12T00:04:31;99541.97;;;3.97;100.00
967;BME280;56108;48.730;9.304;2023-02-12T00:06:39;99541.19;;;3.91;100.00
967;BME280;56108;48.730;9.304;2023-02-12T00:08:49;99546.44;;;3.90;100.00
967;BME280;56108;48.730;9.304;2023-02-12T00:10:57;99541.19;;;3.90;100.00
967;BME280;56108;48.730;9.304;2023-02-12T00:13:05;99542.91;;;3.91;100.00
967;BME280;56108;48.730;9.304;2023-02-12T00:15:16;99539.50;;;3.84;100.00
967;BME280;56108;48.730;9.304;2023-02-12T00:17:24;99540.44;;;3.79;100.00
967;BME280;56108;48.730;9.304;2023-02-12T00:19:32;99549.22;;;3.78;100.00
967;BME280;56108;48.730;9.304;2023-02-12T00:21:40;99553.59;;;3.79;100.00
967;BME280;56108;48.730;9.304;2023-02-12T00:23:48;99550.06;;;3.80;100.00
967;BME280;56108;48.730;9.304;2023-02-12T00:25:56;99558.81;;;3.86;100.00
967;BME280;56108;48.730;9.304;2023-02-12T00:28:04;99547.31;;;3.93;100.00
967;BME280;56108;48.730;9.304;2023-02-12T00:30:16;99557.03;;;3.85;100.00
967;BME280;56108;48.730;9.304;2023-02-12T00:32:23;99555.34;;;3.80;100.00
967;BME280;56108;48.730;9.304;2023-02-12T00:34:31;99553.63;;;3.77;100.00
967;BME280;56108;48.730;9.304;2023-02-12T00:36:40;99550.06;;;3.80;100.00
967;BME280;56108;48.730;9.304;2023-02-12T00:38:50;99551.94;;;3.70;100.00
967;BME280;56108;48.730;9.304;2023-02-12T00:41:01;99549.28;;;3.73;100.00
967;BME280;56108;48.730;9.304;2023-02-12T00:43:09;99553.66;;;3.74;100.00
967;BME280;56108;48.730;9.304;2023-02-12T00:45:19;99557.19;;;3.72;100.00
967;BME280;56108;48.730;9.304;2023-02-12T00:47:31;99558.06;;;3.72;100.00
967;BME280;56108;48.730;9.304;2023-02-12T00:49:57;99563.31;;;3.74;100.00
967;BME280;56108;48.730;9.304;2023-02-12T00:52:05;99561.50;;;3.79;100.00
967;BME280;56108;48.730;9.304;2023-02-12T00:54:14;99557.94;;;3.84;100.00
967;BME280;56108;48.730;9.304;2023-02-12T00:56:22;99563.28;;;3.78;100.00
967;BME280;56108;48.730;9.304;2023-02-12T00:58:30;99565.81;;;3.84;100.00
967;BME280;56108;48.730;9.304;2023-02-12T01:00:41;99554.41;;;3.87;100.00
967;BME280;56108;48.730;9.304;2023-02-12T01:02:49;99551.69;;;3.93;100.00
967;BME280;56108;48.730;9.304;2023-02-12T01:04:56;99558.72;;;3.92;100.00
967;BME280;56108;48.730;9.304;2023-02-12T01:07:05;99559.50;;;4.01;100.00
967;BME280;56108;48.730;9.304;2023-02-12T01:09:13;99562.09;;;4.04;100.00
967;BME280;56108;48.730;9.304;2023-02-12T01:11:21;99561.25;;;4.00;100.00
967;BME280;56108;48.730;9.304;2023-02-12T01:13:32;99558.72;;;3.92;100.00
967;BME280;56108;48.730;9.304;2023-02-12T01:15:43;99564.16;;;3.76;100.00
967;BME280;56108;48.730;9.304;2023-02-12T01:17:52;99554.44;;;3.84;100.00
967;BME280;56108;48.730;9.304;2023-02-12T01:20:00;99550.81;;;3.92;100.00
967;BME280;56108;48.730;9.304;2023-02-12T01:22:10;99555.22;;;3.90;100.00
967;BME280;56108;48.730;9.304;2023-02-12T01:24:20;99557.72;;;4.01;100.00
967;BME280;56108;48.730;9.304;2023-02-12T01:26:29;99556.75;;;4.10;100.00
967;BME280;56108;48.730;9.304;2023-02-12T01:28:38;99560.31;;;4.06;100.00
967;BME280;56108;48.730;9.304;2023-02-12T01:30:48;99551.59;;;4.01;100.00
967;BME280;56108;48.730;9.304;2023-02-12T01:32:56;99560.50;;;3.89;100.00
967;BME280;56108;48.730;9.304;2023-02-12T01:35:06;99557.81;;;3.95;100.00
967;BME280;56108;48.730;9.304;2023-02-12T01:37:17;99552.63;;;3.89;100.00
967;BME280;56108;48.730;9.304;2023-02-12T01:39:25;99559.56;;;3.98;100.00
967;BME280;56108;48.730;9.304;2023-02-12T01:41:37;99561.25;;;4.03;100.00
967;BME280;56108;48.730;9.304;2023-02-12T01:44:08;99563.09;;;3.93;100.00
967;BME280;56108;48.730;9.304;2023-02-12T01:46:19;99550.63;;;4.09;100.00
967;BME280;56108;48.730;9.304;2023-02-12T01:48:29;99556.78;;;4.08;100.00
967;BME280;56108;48.730;9.304;2023-02-12T01:50:41;99549.84;;;4.03;100.00
967;BME280;56108;48.730;9.304;2023-02-12T01:52:53;99553.34;;;4.00;100.00
967;BME280;56108;48.730;9.304;2023-02-12T01:55:06;99553.31;;;4.05;100.00
967;BME280;56108;48.730;9.304;2023-02-12T01:57:16;99548.13;;;3.96;100.00
967;BME280;56108;48.730;9.304;2023-02-12T01:59:25;99541.31;;;3.79;100.00
967;BME280;56108;48.730;9.304;2023-02-12T02:01:36;99542.19;;;3.80;100.00
967;BME280;56108;48.730;9.304;2023-02-12T02:03:45;99545.69;;;3.82;100.00
967;BME280;56108;48.730;9.304;2023-02-12T02:05:57;99544.00;;;3.73;100.00
967;BME280;56108;48.730;9.304;2023-02-12T02:08:06;99553.63;;;3.77;100.00
967;BME280;56108;48.730;9.304;2023-02-12T02:10:16;99550.94;;;3.82;100.00
967;BME280;56108;48.730;9.304;2023-02-12T02:12:25;99550.13;;;3.77;100.00
967;BME280;56108;48.730;9.304;2023-02-12T02:14:46;99540.47;;;3.74;100.00
967;BME280;56108;48.730;9.304;2023-02-12T02:17:03;99549.19;;;3.81;100.00
967;BME280;56108;48.730;9.304;2023-02-12T02:19:26;99547.25;;;3.97;100.00
967;BME280;56108;48.730;9.304;2023-02-12T02:21:58;99538.69;;;3.78;100.00
967;BME280;56108;48.730;9.304;2023-02-12T02:24:33;99535.16;;;3.79;100.00
967;BME280;56108;48.730;9.304;2023-02-12T02:27:09;99538.75;;;3.73;100.00
967;BME280;56108;48.730;9.304;2023-02-12T02:29:39;99535.19;;;3.77;100.00
967;BME280;56108;48.730;9.304;2023-02-12T02:31:57;99529.97;;;3.73;100.00
967;BME280;56108;48.730;9.304;2023-02-12T02:34:10;99529.91;;;3.79;100.00
967;BME280;56108;48.730;9.304;2023-02-12T02:36:26;99522.03;;;3.76;100.00
967;BME280;56108;48.730;9.304;2023-02-12T02:38:40;99529.09;;;3.71;100.00
967;BME280;56108;48.730;9.304;2023-02-12T02:40:55;99524.88;;;3.57;100.00
967;BME280;56108;48.730;9.304;2023-02-12T02:43:09;99524.78;;;3.66;100.00
967;BME280;56108;48.730;9.304;2023-02-12T02:45:25;99525.59;;;3.72;100.00
967;BME280;56108;48.730;9.304;2023-02-12T02:47:40;99526.53;;;3.64;100.00
967;BME280;56108;48.730;9.304;2023-02-12T02:49:53;99518.66;;;3.63;100.00
967;BME280;56108;48.730;9.304;2023-02-12T02:52:05;99523.09;;;3.61;100.00
967;BME280;56108;48.730;9.304;2023-02-12T02:54:20;99530.13;;;3.60;100.00
967;BME280;56108;48.730;9.304;2023-02-12T02:56:29;99527.47;;;3.60;100.00
967;BME280;56108;48.730;9.304;2023-02-12T02:58:40;99528.34;;;3.59;100.00
967;BME280;56108;48.730;9.304;2023-02-12T03:00:51;99523.03;;;3.64;100.00
967;BME280;56108;48.730;9.304;2023-02-12T03:03:08;99527.50;;;3.57;100.00
967;BME280;56108;48.730;9.304;2023-02-12T03:05:22;99528.47;;;3.50;100.00
967;BME280;56108;48.730;9.304;2023-02-12T03:07:35;99530.22;;;3.48;100.00
967;BME280;56108;48.730;9.304;2023-02-12T03:09:49;99524.13;;;3.45;100.00
967;BME280;56108;48.730;9.304;2023-02-12T03:12:02;99528.53;;;3.43;100.00
967;BME280;56108;48.730;9.304;2023-02-12T03:14:15;99525.91;;;3.41;100.00
967;BME280;56108;48.730;9.304;2023-02-12T03:16:27;99538.16;;;3.45;100.00
967;BME280;56108;48.730;9.304;2023-02-12T03:18:42;99526.66;;;3.55;100.00
967;BME280;56108;48.730;9.304;2023-02-12T03:20:56;99533.72;;;3.52;100.00
967;BME280;56108;48.730;9.304;2023-02-12T03:23:07;99536.47;;;3.39;100.00
967;BME280;56108;48.730;9.304;2023-02-12T03:25:20;99547.84;;;3.42;100.00
967;BME280;56108;48.730;9.304;2023-02-12T03:27:31;99542.56;;;3.43;100.00
967;BME280;56108;48.730;9.304;2023-02-12T03:29:40;99542.66;;;3.32;100.00
967;BME280;56108;48.730;9.304;2023-02-12T03:31:57;99542.63;;;3.34;100.00
967;BME280;56108;48.730;9.304;2023-02-12T03:34:17;99541.78;;;3.35;100.00
967;BME280;56108;48.730;9.304;2023-02-12T03:36:33;99539.13;;;3.35;100.00
967;BME280;56108;48.730;9.304;2023-02-12T03:38:47;99539.13;;;3.35;100.00
967;BME280;56108;48.730;9.304;2023-02-12T03:41:01;99538.34;;;3.22;100.00
967;BME280;56108;48.730;9.304;2023-02-12T03:43:18;99533.78;;;3.43;100.00
967;BME280;56108;48.730;9.304;2023-02-12T03:45:38;99541.66;;;3.44;100.00
967;BME280;56108;48.730;9.304;2023-02-12T03:47:50;99540.03;;;3.31;100.00
967;BME280;56108;48.730;9.304;2023-02-12T03:50:09;99536.41;;;3.44;100.00
967;BME280;56108;48.730;9.304;2023-02-12T03:52:20;99538.09;;;3.51;100.00
967;BME280;56108;48.730;9.304;2023-02-12T03:54:28;99545.16;;;3.46;100.00
967;BME280;56108;48.730;9.304;2023-02-12T03:56:39;99538.19;;;3.39;100.00
967;BME280;56108;48.730;9.304;2023-02-12T03:58:51;99540.91;;;3.33;100.00
967;BME280;56108;48.730;9.304;2023-02-12T04:01:00;99547.94;;;3.31;100.00
967;BME280;56108;48.730;9.304;2023-02-12T04:03:09;99546.28;;;3.21;100.00
967;BME280;56108;48.730;9.304;2023-02-12T04:05:22;99548.13;;;3.09;100.00
967;BME280;56108;48.730;9.304;2023-02-12T04:07:31;99548.22;;;2.99;100.00
967;BME280;56108;48.730;9.304;2023-02-12T04:09:42;99547.25;;;3.06;100.00
967;BME280;56108;48.730;9.304;2023-02-12T04:12:05;99558.66;;;3.06;100.00
967;BME280;56108;48.730;9.304;2023-02-12T04:14:23;99557.78;;;3.06;100.00
967;BME280;56108;48.730;9.304;2023-02-12T04:16:40;99562.97;;;3.17;100.00
967;BME280;56108;48.730;9.304;2023-02-12T04:18:51;99556.84;;;3.16;100.00
967;BME280;56108;48.730;9.304;2023-02-12T04:21:06;99554.19;;;3.16;100.00
967;BME280;56108;48.730;9.304;2023-02-12T04:23:31;99555.06;;;3.17;100.00
967;BME280;56108;48.730;9.304;2023-02-12T04:25:52;99556.84;;;3.14;100.00
967;BME280;56108;48.730;9.304;2023-02-12T04:28:11;99562.94;;;3.18;100.00
967;BME280;56108;48.730;9.304;2023-02-12T04:30:26;99556.69;;;3.33;100.00
967;BME280;56108;48.730;9.304;2023-02-12T04:32:40;99561.13;;;3.29;100.00
967;BME280;56108;48.730;9.304;2023-02-12T04:34:54;99558.53;;;3.22;100.00
967;BME280;56108;48.730;9.304;2023-02-12T04:37:11;99555.94;;;3.17;100.00
967;BME280;56108;48.730;9.304;2023-02-12T04:39:25;99564.78;;;3.10;100.00
967;BME280;56108;48.730;9.304;2023-02-12T04:41:34;99565.63;;;3.12;100.00
967;BME280;56108;48.730;9.304;2023-02-12T04:43:42;99565.56;;;3.18;100.00
967;BME280;56108;48.730;9.304;2023-02-12T04:45:50;99567.25;;;3.28;100.00
967;BME280;56108;48.730;9.304;2023-02-12T04:47:59;99569.88;;;3.30;100.00
967;BME280;56108;48.730;9.304;2023-02-12T04:50:08;99573.34;;;3.35;100.00
967;BME280;56108;48.730;9.304;2023-02-12T04:52:19;99564.66;;;3.25;100.00
967;BME280;56108;48.730;9.304;2023-02-12T04:54:27;99576.97;;;3.20;100.00
967;BME280;56108;48.730;9.304;2023-02-12T04:56:35;99565.59;;;3.17;100.00
967;BME280;56108;48.730;9.304;2023-02-12T04:58:42;99560.19;;;3.32;100.00
967;BME280;56108;48.730;9.304;2023-02-12T05:00:50;99569.00;;;3.29;100.00
967;BME280;56108;48.730;9.304;2023-02-12T05:02:58;99575.94;;;3.39;100.00
967;BME280;56108;48.730;9.304;2023-02-12T05:05:07;99569.00;;;3.31;100.00
967;BME280;56108;48.730;9.304;2023-02-12T05:07:20;99571.50;;;3.45;100.00
967;BME280;56108;48.730;9.304;2023-02-12T05:09:28;99571.47;;;3.48;100.00
967;BME280;56108;48.730;9.304;2023-02-12T05:11:36;99568.06;;;3.36;100.00
967;BME280;56108;48.730;9.304;2023-02-12T05:13:47;99572.41;;;3.40;100.00
967;BME280;56108;48.730;9.304;2023-02-12T05:15:55;99569.78;;;3.40;100.00
967;BME280;56108;48.730;9.304;2023-02-12T05:18:03;99562.81;;;3.33;100.00
967;BME280;56108;48.730;9.304;2023-02-12T05:20:12;99561.88;;;3.39;100.00
967;BME280;56108;48.730;9.304;2023-02-12T05:22:23;99562.78;;;3.38;100.00
967;BME280;56108;48.730;9.304;2023-02-12T05:24:31;99568.00;;;3.43;100.00
967;BME280;56108;48.730;9.304;2023-02-12T05:26:39;99564.44;;;3.48;100.00
967;BME280;56108;48.730;9.304;2023-02-12T05:28:47;99570.66;;;3.41;100.00
967;BME280;56108;48.730;9.304;2023-02-12T05:30:58;99565.34;;;3.47;100.00
967;BME280;56108;48.730;9.304;2023-02-12T05:33:06;99573.22;;;3.47;100.00
967;BME280;56108;48.730;9.304;2023-02-12T05:35:14;99560.91;;;3.49;100.00
967;BME280;56108;48.730;9.304;2023-02-12T05:37:25;99564.56;;;3.36;100.00
967;BME280;56108;48.730;9.304;2023-02-12T05:39:35;99568.09;;;3.35;100.00
967;BME280;56108;48.730;9.304;2023-02-12T05:41:46;99563.72;;;3.31;100.00
967;BME280;56108;48.730;9.304;2023-02-12T05:44:06;99568.94;;;3.37;100.00
967;BME280;56108;48.730;9.304;2023-02-12T05:46:16;99567.22;;;3.31;100.00
967;BME280;56108;48.730;9.304;2023-02-12T05:48:27;99566.28;;;3.38;100.00
967;BME280;56108;48.730;9.304;2023-02-12T05:50:36;99576.81;;;3.37;100.00
967;BME280;56108;48.730;9.304;2023-02-12T05:52:47;99571.63;;;3.28;100.00
967;BME280;56108;48.730;9.304;2023-02-12T05:54:55;99568.19;;;3.21;100.00
967;BME280;56108;48.730;9.304;2023-02-12T05:57:03;99568.19;;;3.21;100.00
967;BME280;56108;48.730;9.304;2023-02-12T05:59:15;99569.06;;;3.25;100.00
967;BME280;56108;48.730;9.304;2023-02-12T06:01:26;99569.03;;;3.23;100.00
967;BME280;56108;48.730;9.304;2023-02-12T06:03:34;99568.06;;;3.33;100.00
967;BME280;56108;48.730;9.304;2023-02-12T06:05:42;99575.19;;;3.25;100.00
967;BME280;56108;48.730;9.304;2023-02-12T06:07:52;99562.88;;;3.27;100.00
967;BME280;56108;48.730;9.304;2023-02-12T06:10:01;99565.63;;;3.13;100.00
967;BME280;56108;48.730;9.304;2023-02-12T06:12:09;99569.97;;;3.19;100.00
967;BME280;56108;48.730;9.304;2023-02-12T06:14:18;99569.97;;;3.19;100.00
967;BME280;56108;48.730;9.304;2023-02-12T06:16:28;99565.59;;;3.17;100.00
967;BME280;56108;48.730;9.304;2023-02-12T06:18:38;99566.47;;;3.17;100.00
967;BME280;56108;48.730;9.304;2023-02-12T06:20:47;99561.19;;;3.20;100.00
967;BME280;56108;48.730;9.304;2023-02-12T06:22:57;99568.31;;;3.06;100.00
967;BME280;56108;48.730;9.304;2023-02-12T06:25:06;99568.34;;;3.04;100.00
967;BME280;56108;48.730;9.304;2023-02-12T06:27:14;99570.94;;;3.09;100.00
967;BME280;56108;48.730;9.304;2023-02-12T06:29:22;99571.78;;;3.08;100.00
967;BME280;56108;48.730;9.304;2023-02-12T06:31:32;99570.91;;;3.10;100.00
967;BME280;56108;48.730;9.304;2023-02-12T06:33:40;99573.53;;;3.12;100.00
967;BME280;56108;48.730;9.304;2023-02-12T06:36:04;99584.84;;;3.25;100.00
967;BME280;56108;48.730;9.304;2023-02-12T06:38:45;99586.63;;;3.17;100.00
967;BME280;56108;48.730;9.304;2023-02-12T06:40:53;99583.13;;;3.18;100.00
967;BME280;56108;48.730;9.304;2023-02-12T06:43:01;99579.56;;;3.26;100.00
967;BME280;56108;48.730;9.304;2023-02-12T06:45:09;99579.47;;;3.37;100.00
967;BME280;56108;48.730;9.304;2023-02-12T06:47:17;99582.91;;;3.44;100.00
967;BME280;56108;48.730;9.304;2023-02-12T06:49:25;99587.22;;;3.49;100.00
967;BME280;56108;48.730;9.304;2023-02-12T06:51:32;99588.31;;;3.27;100.00
967;BME280;56108;48.730;9.304;2023-02-12T06:53:44;99587.50;;;3.20;100.00
967;BME280;56108;48.730;9.304;2023-02-12T06:55:52;99592.75;;;3.22;100.00
967;BME280;56108;48.730;9.304;2023-02-12T06:58:00;99595.25;;;3.37;100.00
967;BME280;56108;48.730;9.304;2023-02-12T07:00:10;99599.50;;;3.52;100.00
967;BME280;56108;48.730;9.304;2023-02-12T07:02:18;99604.66;;;3.64;100.00
967;BME280;56108;48.730;9.304;2023-02-12T07:04:26;99600.19;;;3.71;100.00
967;BME280;56108;48.730;9.304;2023-02-12T07:06:34;99594.09;;;3.69;100.00
967;BME280;56108;48.730;9.304;2023-02-12T07:08:45;99601.84;;;3.84;100.00
967;BME280;56108;48.730;9.304;2023-02-12T07:10:54;99598.19;;;3.96;100.00
967;BME280;56108;48.730;9.304;2023-02-12T07:13:03;99602.47;;;4.06;100.00
967;BME280;56108;48.730;9.304;2023-02-12T07:15:11;99606.03;;;4.03;100.00
967;BME280;56108;48.730;9.304;2023-02-12T07:17:20;99605.16;;;4.01;100.00
967;BME280;56108;48.730;9.304;2023-02-12T07:19:28;99606.97;;;3.96;100.00
967;BME280;56108;48.730;9.304;2023-02-12T07:21:38;99604.28;;;4.01;100.00
967;BME280;56108;48.730;9.304;2023-02-12T07:23:49;99599.63;;;4.26;100.00
967;BME280;56108;48.730;9.304;2023-02-12T07:25:59;99604.16;;;4.11;100.00
967;BME280;56108;48.730;9.304;2023-02-12T07:28:07;99610.25;;;4.16;100.00
967;BME280;56108;48.730;9.304;2023-02-12T07:30:15;99613.75;;;4.18;100.00
967;BME280;56108;48.730;9.304;2023-02-12T07:32:23;99611.78;;;4.36;100.00
967;BME280;56108;48.730;9.304;2023-02-12T07:34:31;99608.44;;;4.23;100.00
967;BME280;56108;48.730;9.304;2023-02-12T07:36:40;99604.84;;;4.30;100.00
967;BME280;56108;48.730;9.304;2023-02-12T07:38:50;99605.66;;;4.35;100.00
967;BME280;56108;48.730;9.304;2023-02-12T07:41:05;99599.53;;;4.33;100.00
967;BME280;56108;48.730;9.304;2023-02-12T07:43:14;99610.03;;;4.36;100.00
967;BME280;56108;48.730;9.304;2023-02-12T07:45:22;99600.53;;;4.22;100.00
967;BME280;56108;48.730;9.304;2023-02-12T07:47:32;99608.34;;;4.28;100.00
967;BME280;56108;48.730;9.304;2023-02-12T07:49:42;99601.91;;;4.53;100.00
967;BME280;56108;48.730;9.304;2023-02-12T07:51:51;99608.69;;;4.72;100.00
967;BME280;56108;48.730;9.304;2023-02-12T07:54:04;99600.66;;;4.82;99.23
967;BME280;56108;48.730;9.304;2023-02-12T07:56:13;99602.28;;;4.89;97.67
967;BME280;56108;48.730;9.304;2023-02-12T07:58:21;99604.09;;;4.85;98.81
967;BME280;56108;48.730;9.304;2023-02-12T08:00:30;99600.19;;;5.11;98.68
967;BME280;56108;48.730;9.304;2023-02-12T08:02:39;99603.53;;;5.23;97.97
967;BME280;56108;48.730;9.304;2023-02-12T08:04:47;99616.09;;;5.06;97.76
967;BME280;56108;48.730;9.304;2023-02-12T08:06:56;99609.06;;;5.08;97.91
967;BME280;56108;48.730;9.304;2023-02-12T08:09:08;99605.47;;;5.12;97.50
967;BME280;56108;48.730;9.304;2023-02-12T08:11:16;99606.00;;;5.34;96.82
967;BME280;56108;48.730;9.304;2023-02-12T08:13:24;99608.25;;;5.59;95.46
967;BME280;56108;48.730;9.304;2023-02-12T08:15:32;99609.91;;;5.63;95.21
967;BME280;56108;48.730;9.304;2023-02-12T08:17:43;99609.78;;;5.70;94.93
967;BME280;56108;48.730;9.304;2023-02-12T08:19:51;99603.53;;;5.76;94.18
967;BME280;56108;48.730;9.304;2023-02-12T08:21:59;99601.69;;;5.81;93.83
967;BME280;56108;48.730;9.304;2023-02-12T08:24:12;99599.94;;;5.80;93.11
967;BME280;56108;48.730;9.304;2023-02-12T08:26:22;99609.13;;;5.59;93.12
967;BME280;56108;48.730;9.304;2023-02-12T08:28:32;99599.69;;;5.94;93.59
967;BME280;56108;48.730;9.304;2023-02-12T08:30:41;99605.22;;;5.80;94.43
967;BME280;56108;48.730;9.304;2023-02-12T08:32:49;99601.50;;;5.90;94.51
967;BME280;56108;48.730;9.304;2023-02-12T08:35:00;99607.63;;;5.94;94.36
967;BME280;56108;48.730;9.304;2023-02-12T08:37:08;99600.63;;;5.90;94.16
967;BME280;56108;48.730;9.304;2023-02-12T08:39:19;99607.78;;;5.85;94.56
967;BME280;56108;48.730;9.304;2023-02-12T08:41:28;99591.84;;;5.88;95.96
967;BME280;56108;48.730;9.304;2023-02-12T08:43:37;99597.06;;;5.95;96.24
967;BME280;56108;48.730;9.304;2023-02-12T08:45:45;99595.41;;;5.87;96.35
967;BME280;56108;48.730;9.304;2023-02-12T08:47:53;99589.13;;;5.95;96.49
967;BME280;56108;48.730;9.304;2023-02-12T08:50:01;99587.47;;;5.87;96.99
967;BME280;56108;48.730;9.304;2023-02-12T08:52:09;99593.59;;;5.92;97.59
967;BME280;56108;48.730;9.304;2023-02-12T08:54:23;99599.06;;;5.80;98.14
967;BME280;56108;48.730;9.304;2023-02-12T08:56:34;99596.94;;;6.00;98.18
967;BME280;56108;48.730;9.304;2023-02-12T08:58:42;99598.06;;;5.87;99.44
967;BME280;56108;48.730;9.304;2023-02-12T09:00:50;99599.50;;;6.05;99.60
967;BME280;56108;48.730;9.304;2023-02-12T09:02:59;99599.78;;;5.88;100.00
967;BME280;56108;48.730;9.304;2023-02-12T09:05:07;99596.84;;;6.05;100.00
967;BME280;56108;48.730;9.304;2023-02-12T09:07:15;99601.63;;;6.31;100.00
967;BME280;56108;48.730;9.304;2023-02-12T09:09:26;99607.00;;;6.69;97.43
967;BME280;56108;48.730;9.304;2023-02-12T09:11:34;99598.44;;;6.97;95.28
967;BME280;56108;48.730;9.304;2023-02-12T09:13:43;99611.09;;;7.23;91.13
967;BME280;56108;48.730;9.304;2023-02-12T09:15:51;99611.16;;;7.57;89.44
967;BME280;56108;48.730;9.304;2023-02-12T09:18:00;99614.97;;;7.79;84.24
967;BME280;56108;48.730;9.304;2023-02-12T09:20:11;99603.41;;;7.48;84.07
967;BME280;56108;48.730;9.304;2023-02-12T09:22:20;99604.06;;;7.57;85.18
967;BME280;56108;48.730;9.304;2023-02-12T09:24:32;99606.75;;;7.19;87.75
967;BME280;56108;48.730;9.304;2023-02-12T09:26:41;99597.44;;;7.40;88.14
967;BME280;56108;48.730;9.304;2023-02-12T09:28:49;99606.97;;;7.10;89.80
967;BME280;56108;48.730;9.304;2023-02-12T09:31:03;99603.97;;;6.47;94.77
967;BME280;56108;48.730;9.304;2023-02-12T09:33:12;99595.84;;;6.95;95.84
967;BME280;56108;48.730;9.304;2023-02-12T09:35:21;99604.38;;;6.69;95.75
967;BME280;56108;48.730;9.304;2023-02-12T09:37:30;99607.94;;;6.67;96.90
967;BME280;56108;48.730;9.304;2023-02-12T09:42:13;99605.13;;;7.84;92.59
967;BME280;56108;48.730;9.304;2023-02-12T09:44:32;99605.00;;;7.55;92.28
967;BME280;56108;48.730;9.304;2023-02-12T09:46:48;99614.28;;;7.37;92.47
967;BME280;56108;48.730;9.304;2023-02-12T09:49:07;99613.28;;;7.41;92.41
967;BME280;56108;48.730;9.304;2023-02-12T09:51:16;99616.28;;;7.63;91.56
967;BME280;56108;48.730;9.304;2023-02-12T09:53:30;99608.78;;;7.07;93.31
967;BME280;56108;48.730;9.304;2023-02-12T09:55:41;99605.69;;;7.27;93.34
967;BME280;56108;48.730;9.304;2023-02-12T09:57:49;99609.03;;;7.34;92.22
967;BME280;56108;48.730;9.304;2023-02-12T10:00:03;99612.91;;;7.21;92.12
967;BME280;56108;48.730;9.304;2023-02-12T10:02:13;99607.72;;;7.16;93.10
967;BME280;56108;48.730;9.304;2023-02-12T10:04:22;99612.56;;;7.35;92.83
967;BME280;56108;48.730;9.304;2023-02-12T10:06:35;99616.06;;;7.35;93.22
967;BME280;56108;48.730;9.304;2023-02-12T10:09:08;99611.16;;;7.57;91.90
967;BME280;56108;48.730;9.304;2023-02-12T10:11:35;99606.44;;;7.32;93.53
967;BME280;56108;48.730;9.304;2023-02-12T10:13:50;99608.72;;;7.48;92.28
967;BME280;56108;48.730;9.304;2023-02-12T10:16:09;99610.97;;;7.27;92.22
967;BME280;56108;48.730;9.304;2023-02-12T10:18:44;99610.63;;;7.77;91.70
967;BME280;56108;48.730;9.304;2023-02-12T10:21:03;99612.22;;;7.48;91.71
967;BME280;56108;48.730;9.304;2023-02-12T10:23:35;99608.72;;;7.82;90.97
967;BME280;56108;48.730;9.304;2023-02-12T10:25:49;99609.97;;;7.67;90.00
967;BME280;56108;48.730;9.304;2023-02-12T10:28:07;99611.25;;;7.52;91.03
967;BME280;56108;48.730;9.304;2023-02-12T10:30:20;99602.94;;;7.30;92.20
967;BME280;56108;48.730;9.304;2023-02-12T10:32:32;99602.81;;;7.37;94.25
967;BME280;56108;48.730;9.304;2023-02-12T10:34:42;99609.75;;;7.42;92.65
967;BME280;56108;48.730;9.304;2023-02-12T10:36:53;99605.97;;;7.52;91.94
967;BME280;56108;48.730;9.304;2023-02-12T10:39:07;99609.31;;;7.59;91.52
967;BME280;56108;48.730;9.304;2023-02-12T10:41:19;99607.69;;;7.53;91.77
967;BME280;56108;48.730;9.304;2023-02-12T10:43:31;99607.34;;;7.31;92.86
967;BME280;56108;48.730;9.304;2023-02-12T10:45:41;99594.88;;;7.35;93.34
967;BME280;56108;48.730;9.304;2023-02-12T10:48:00;99590.47;;;7.36;93.48
967;BME280;56108;48.730;9.304;2023-02-12T10:50:18;99591.16;;;7.44;92.41
967;BME280;56108;48.730;9.304;2023-02-12T10:52:34;99585.47;;;7.23;94.29
967;BME280;56108;48.730;9.304;2023-02-12T10:54:46;99583.31;;;7.39;93.56
967;BME280;56108;48.730;9.304;2023-02-12T10:56:55;99594.00;;;7.36;93.41
967;BME280;56108;48.730;9.304;2023-02-12T10:59:09;99589.06;;;7.21;93.58
967;BME280;56108;48.730;9.304;2023-02-12T11:01:28;99583.78;;;7.19;95.49
967;BME280;56108;48.730;9.304;2023-02-12T11:03:38;99583.59;;;7.28;94.91
967;BME280;56108;48.730;9.304;2023-02-12T11:05:47;99576.88;;;7.14;96.01
967;BME280;56108;48.730;9.304;2023-02-12T11:07:55;99576.81;;;7.17;95.77
967;BME280;56108;48.730;9.304;2023-02-12T11:10:19;99575.69;;;7.25;96.60
967;BME280;56108;48.730;9.304;2023-02-12T11:12:33;99570.94;;;7.40;95.36
967;BME280;56108;48.730;9.304;2023-02-12T11:14:51;99576.47;;;7.30;94.96
967;BME280;56108;48.730;9.304;2023-02-12T11:17:00;99578.19;;;7.67;94.24
967;BME280;56108;48.730;9.304;2023-02-12T11:19:19;99581.78;;;7.65;93.05
967;BME280;56108;48.730;9.304;2023-02-12T11:21:34;99581.91;;;7.60;93.15
967;BME280;56108;48.730;9.304;2023-02-12T11:23:43;99584.28;;;7.37;93.69
967;BME280;56108;48.730;9.304;2023-02-12T11:25:56;99578.34;;;7.25;95.38
967;BME280;56108;48.730;9.304;2023-02-12T11:28:13;99576.63;;;7.24;95.98
967;BME280;56108;48.730;9.304;2023-02-12T11:30:26;99568.41;;;7.35;95.18
967;BME280;56108;48.730;9.304;2023-02-12T11:32:34;99568.28;;;7.40;95.47
967;BME280;56108;48.730;9.304;2023-02-12T11:34:42;99566.50;;;7.42;94.84
967;BME280;56108;48.730;9.304;2023-02-12T11:36:51;99568.66;;;7.24;94.67
967;BME280;56108;48.730;9.304;2023-02-12T11:38:59;99568.38;;;7.37;94.79
967;BME280;56108;48.730;9.304;2023-02-12T11:41:22;99572.34;;;7.19;96.15
967;BME280;56108;48.730;9.304;2023-02-12T11:43:33;99571.00;;;7.38;96.66
967;BME280;56108;48.730;9.304;2023-02-12T11:45:47;99570.78;;;7.46;95.79
967;BME280;56108;48.730;9.304;2023-02-12T11:47:56;99571.53;;;7.52;95.50
967;BME280;56108;48.730;9.304;2023-02-12T11:50:07;99568.66;;;7.60;95.45
967;BME280;56108;48.730;9.304;2023-02-12T11:52:19;99563.16;;;8.00;93.15
967;BME280;56108;48.730;9.304;2023-02-12T11:54:38;99561.38;;;8.01;91.71
967;BME280;56108;48.730;9.304;2023-02-12T11:56:47;99556.44;;;7.89;91.86
967;BME280;56108;48.730;9.304;2023-02-12T11:59:11;99551.84;;;8.26;90.13
967;BME280;56108;48.730;9.304;2023-02-12T12:01:32;99550.31;;;8.18;90.36